MMMM

Details ICAO MMMM (MLM)
Name GENERAL FRANCISCO J MUJICA INTL
Region Mexico
Timezone America/Mexico_City (UTC-5.0)
Plans Departing 31
Arriving 40
Stats Elevation 6,033 ft / 1,839 m (AMSL)
Location 19.850494° -101.025263°
Runways 1
Magnetic Variation 5.360° E
Sunrise 2018-06-20 12:07:02 UTC / 2018-06-20 07:07:02 Local
Sunset 2018-06-21 01:26:53 UTC / 2018-06-20 20:26:53 Local
Advertisement - Login to hide

Runways

ID Width Length Bearing (true) Bearing (mag) Surface Threshold Offset Overrun Length
05 148 ft / 45 m 11,164 ft / 3,403 m 54.53° 49.17° Asphalt 0 ft / 0 m 190 ft / 58 m
23 148 ft / 45 m 11,164 ft / 3,403 m 234.54° 229.18° Asphalt 0 ft / 0 m 190 ft / 58 m

Map

Weather


0- 5 10 15 20 25 30 35+ Temperature / ° C

Clouds and Precipitation
Forecast for 2018-06-20 06:00 UTC. Updated 6 hours ago

Ground ~20,000 ft ~40,000 ft Winds

METAR

MMMM 200745Z 25003KT 5SM -RA SCT010 BKN020 OVC080 15/15 A3020 RMK 60255 8/57/ RWY WET RA INTMT

TAF

TAF MMMM 192328Z 2000/2106 22013KT P6SM SCT010 BKN030 OVC070 TEMPO 2000/2004 5SM TSRA BKN030CB OVC070 FM200400 16006KT 6SM -RA BKN020 OVC070 FM200800 00000KT 5SM HZ BKN020 BKN070 TEMPO 2010/2014 5SM RA BKN015 OVC070 FM201600 18010KT P6SM SCT020 BKN200 TEMPO 2023/2103 5SM RA BKN020 BKN070 OVC200

Frequencies

Approach 118.50 MHz MORELIA APP/TWR
Warning: Do not use this data for real-world aviation or navigation. No guarantee of current accuracy is given.